Ak-Depe, Turkmenistan

4:28 AM TMT on September 04, 2015 (GMT +0500)
Nukus / Karakalpakstan | | Change Station
CLOSE
Current Station
Airport
Location: Nukus / Karakalpakstan,
Elevation: 253 ft
Nearby Weather Stations

Elev 253 ft 42.49 °N, 59.62 °E | Updated 28 minutes ago

Clear
Clear
63 °F
Feels Like 63 °F
N
6
Wind Variable Wind from SSE

Today
High -- | Low -- °F
--% Chance of Precip.
Yesterday
High -- | Low -- °F
Precip. -- in
6:30 AM 7:32 PM
Waning Gibbous, 66% visible
Pressure 30.01 in
Visibility -9999.0 miles
Clouds
Dew Point 41 °F
Humidity 45%
Rainfall 0.00 in
Snow Depth Not available.
UV Not available.
Pollen Not available.
Air Quality Not available.
Flu Activity Not available.
METAR UTNN 032300Z 15005KT CAVOK 17/05 Q1016 R33/CLRD60 NOSIG
Pressure 30.01 in
Visibility -9999.0 miles
Clouds
Dew Point 41 °F
Humidity 45%
Rainfall 0.00 in
Snow Depth Not available.
UV Not available.
Pollen Not available.
Air Quality Not available.
Flu Activity Not available.
METAR UTNN 032300Z 15005KT CAVOK 17/05 Q1016 R33/CLRD60 NOSIG

10-Day Weather Forecast

×

Almanac

Astronomy

Sep. 04, 2015 Rise Set
Actual Time
Civil Twilight
Nautical Twilight
Astronomical Twilight
Moon
Length of Visible Light
Length of Day
Tomorrow will be .
, % of the Moon is Illuminated

Today's Extremes

Country Highs Country Lows

Community

WunderPhotos

Upload Photos

1,852,060 photos uploaded!

WunderBlogs® & News

Nearby

Air Quality

  Air Quality AQ Index Pollutant
Not available.

Snow Depth

Station Depth Elevation

Earthquake Activity

City Distance Mag. Time & Date
Minimum magnitude displayed is 2.5.

Coastal Water Temperatures

Place Temperature

Stations

Nearby Weather Stations

Station Location Temp. Windchill Dew Point Humidity Wind Precip. Elev Updated Type